Time;durP1;ratioP1;P1;durP2;ratioP2;P2;SDS_P1;SDS_P2;PMS_P1;PMS_P2;Temp;Humidity;BMP_temperature;BMP_pressure;BME280_temperature;BME280_humidity;BME280_pressure;Samples;Min_cycle;Max_cycle;Signal;HPM_P1;HPM_P2
2023/01/08 00:01:21;;;;;;;13.55;1.80;;;;;;;;;;5092069;28;20058;-75
2023/01/08 00:03:52;;;;;;;9.10;1.30;;;;;;;;;;5090137;28;20043;-76
2023/01/08 00:06:24;;;;;;;9.43;1.30;;;;;;;;;;5087065;28;20044;-76
2023/01/08 00:08:54;;;;;;;7.03;1.27;;;;;;;;;;5088209;28;20117;-75
2023/01/08 00:11:26;;;;;;;6.63;1.35;;;;;;;;;;5095220;28;20040;-75
2023/01/08 00:13:56;;;;;;;11.13;1.63;;;;;;;;;;5090293;28;20063;-76
2023/01/08 00:16:27;;;;;;;17.13;1.60;;;;;;;;;;5092896;28;20047;-77
2023/01/08 00:18:58;;;;;;;10.50;1.45;;;;;;;;;;5095955;28;20035;-75
2023/01/08 00:21:29;;;;;;;8.45;1.60;;;;;;;;;;5105906;28;20050;-76
2023/01/08 00:24:01;;;;;;;16.73;1.30;;;;;;;;;;5093963;28;20055;-75
2023/01/08 00:26:31;;;;;;;5.90;1.13;;;;;;;;;;5086068;28;20052;-76
2023/01/08 00:29:01;;;;;;;13.05;1.38;;;;;;;;;;5086828;28;20800;-76
2023/01/08 00:31:32;;;;;;;7.65;1.60;;;;;;;;;;5091525;28;20103;-76
2023/01/08 00:34:02;;;;;;;10.63;1.63;;;;;;;;;;5086332;28;20044;-77
2023/01/08 00:36:33;;;;;;;13.85;2.40;;;;;;;;;;5067919;28;20434;-76
2023/01/08 00:39:03;;;;;;;9.02;1.30;;;;;;;;;;5086596;28;20043;-76
2023/01/08 00:41:33;;;;;;;13.95;2.03;;;;;;;;;;5086314;28;20055;-76
2023/01/08 00:44:03;;;;;;;7.50;1.83;;;;;;;;;;5086406;28;20040;-77
2023/01/08 00:46:35;;;;;;;12.73;1.75;;;;;;;;;;5084240;28;20059;-76
2023/01/08 00:49:05;;;;;;;4.80;1.17;;;;;;;;;;5085190;28;20514;-75
2023/01/08 00:51:35;;;;;;;8.20;1.60;;;;;;;;;;5086568;28;20463;-75
2023/01/08 00:54:05;;;;;;;12.05;1.77;;;;;;;;;;5095715;28;20039;-76
2023/01/08 00:56:36;;;;;;;12.18;1.40;;;;;;;;;;5095845;28;20036;-74
2023/01/08 00:59:08;;;;;;;9.88;2.65;;;;;;;;;;5094741;28;20048;-74
2023/01/08 01:01:38;;;;;;;10.13;1.60;;;;;;;;;;5097843;28;20050;-75
2023/01/08 01:04:09;;;;;;;6.82;1.42;;;;;;;;;;5089720;28;20418;-76
2023/01/08 01:06:42;;;;;;;16.38;1.50;;;;;;;;;;5088547;28;20067;-76
2023/01/08 01:09:13;;;;;;;10.23;1.23;;;;;;;;;;5089503;28;20074;-75
2023/01/08 01:11:43;;;;;;;11.75;1.45;;;;;;;;;;5089816;28;20596;-75
2023/01/08 01:14:14;;;;;;;13.13;1.80;;;;;;;;;;5089607;28;20048;-76
2023/01/08 01:16:47;;;;;;;9.52;1.35;;;;;;;;;;5089418;28;20051;-76
2023/01/08 01:19:18;;;;;;;8.30;1.83;;;;;;;;;;5088323;28;20048;-75
2023/01/08 01:21:48;;;;;;;16.17;1.88;;;;;;;;;;5090008;28;20293;-76
2023/01/08 01:24:20;;;;;;;10.93;1.98;;;;;;;;;;5089306;28;20059;-75
2023/01/08 01:26:51;;;;;;;5.85;1.00;;;;;;;;;;5089894;28;20044;-75
2023/01/08 01:29:23;;;;;;;13.05;1.27;;;;;;;;;;5089996;28;20059;-75
2023/01/08 01:31:58;;;;;;;12.10;1.98;;;;;;;;;;5089912;28;20052;-75
2023/01/08 01:34:39;;;;;;;11.25;1.13;;;;;;;;;;5089064;28;20055;-76
2023/01/08 01:37:13;;;;;;;9.57;1.50;;;;;;;;;;5089571;28;20044;-75
2023/01/08 01:39:45;;;;;;;8.20;1.55;;;;;;;;;;5089857;28;20395;-76
2023/01/08 01:45:30;;;;;;;11.30;2.00;;;;;;;;;;5089659;28;20479;-76
2023/01/08 01:48:09;;;;;;;8.90;1.85;;;;;;;;;;5089426;28;20044;-75
2023/01/08 01:50:45;;;;;;;6.05;1.23;;;;;;;;;;5089437;28;20048;-75
2023/01/08 01:53:42;;;;;;;7.82;1.02;;;;;;;;;;5089108;28;20044;-75
2023/01/08 01:56:12;;;;;;;9.75;1.33;;;;;;;;;;5087419;28;20056;-75
2023/01/08 01:58:42;;;;;;;5.55;1.15;;;;;;;;;;5088928;28;20055;-75
2023/01/08 02:01:12;;;;;;;9.73;1.38;;;;;;;;;;5089591;28;20430;-75
2023/01/08 02:03:44;;;;;;;18.52;1.52;;;;;;;;;;5071536;28;20048;-76
2023/01/08 02:06:26;;;;;;;12.35;1.98;;;;;;;;;;5089280;28;20048;-75
2023/01/08 02:09:07;;;;;;;9.40;1.35;;;;;;;;;;5088846;28;20071;-75
2023/01/08 02:12:15;;;;;;;7.25;1.50;;;;;;;;;;5088310;28;20051;-75
2023/01/08 02:15:11;;;;;;;4.25;1.08;;;;;;;;;;5088885;28;20515;-76
2023/01/08 02:18:08;;;;;;;6.18;1.25;;;;;;;;;;5084858;28;20067;-76
2023/01/08 02:20:50;;;;;;;5.30;1.45;;;;;;;;;;5088270;28;20048;-75
2023/01/08 02:23:33;;;;;;;12.27;1.58;;;;;;;;;;5088816;28;20063;-75
2023/01/08 02:26:14;;;;;;;7.90;1.13;;;;;;;;;;5088713;28;20495;-75
2023/01/08 02:29:04;;;;;;;11.38;1.50;;;;;;;;;;5088966;28;20048;-76
2023/01/08 02:31:41;;;;;;;7.18;1.00;;;;;;;;;;5080851;28;20056;-77
2023/01/08 02:34:12;;;;;;;7.25;1.13;;;;;;;;;;5088954;28;20051;-75
2023/01/08 02:36:47;;;;;;;10.40;1.15;;;;;;;;;;5088110;28;20059;-75
2023/01/08 02:39:36;;;;;;;9.35;1.02;;;;;;;;;;5087995;28;20517;-75
2023/01/08 02:42:32;;;;;;;9.60;1.33;;;;;;;;;;5087132;28;20056;-75
2023/01/08 02:45:11;;;;;;;10.35;1.30;;;;;;;;;;5088620;28;20048;-76
2023/01/08 02:47:49;;;;;;;10.40;1.40;;;;;;;;;;5088057;28;20499;-76
2023/01/08 02:50:24;;;;;;;9.00;1.60;;;;;;;;;;5088312;28;20048;-75
2023/01/08 02:53:16;;;;;;;7.55;1.45;;;;;;;;;;5087797;28;20036;-76
2023/01/08 02:55:52;;;;;;;7.80;1.08;;;;;;;;;;5087338;28;20048;-76
2023/01/08 02:58:25;;;;;;;9.00;1.27;;;;;;;;;;5088282;28;20098;-75
2023/01/08 03:00:56;;;;;;;7.78;1.20;;;;;;;;;;5088579;28;20070;-76
2023/01/08 03:03:29;;;;;;;11.27;1.30;;;;;;;;;;5088176;28;20517;-76
2023/01/08 03:06:13;;;;;;;8.20;1.05;;;;;;;;;;5087393;28;20048;-75
2023/01/08 03:08:48;;;;;;;7.18;1.15;;;;;;;;;;5085811;28;20048;-75
2023/01/08 03:11:20;;;;;;;8.65;1.55;;;;;;;;;;5086398;28;20066;-75
2023/01/08 03:13:57;;;;;;;10.52;1.60;;;;;;;;;;5087852;28;20052;-76
2023/01/08 03:16:54;;;;;;;8.23;1.02;;;;;;;;;;5087990;28;20044;-76
2023/01/08 03:19:27;;;;;;;6.30;1.20;;;;;;;;;;5087770;28;20048;-75
2023/01/08 03:21:59;;;;;;;6.90;1.30;;;;;;;;;;5088333;28;20154;-78
2023/01/08 03:24:36;;;;;;;6.85;1.02;;;;;;;;;;5086803;28;20528;-76
2023/01/08 03:27:13;;;;;;;9.98;1.25;;;;;;;;;;5087695;28;20052;-75
2023/01/08 03:29:46;;;;;;;9.75;1.38;;;;;;;;;;5087993;28;20040;-75
2023/01/08 03:32:19;;;;;;;9.02;1.33;;;;;;;;;;5087824;28;20040;-76
2023/01/08 03:34:52;;;;;;;10.35;1.60;;;;;;;;;;5087608;28;20048;-75
2023/01/08 03:37:33;;;;;;;5.70;1.52;;;;;;;;;;5087180;28;20543;-76
2023/01/08 03:40:13;;;;;;;9.70;1.27;;;;;;;;;;5087415;28;20044;-75
2023/01/08 03:42:43;;;;;;;9.77;1.48;;;;;;;;;;5087263;28;20044;-76
2023/01/08 03:45:14;;;;;;;8.48;1.48;;;;;;;;;;5087230;28;20051;-76
2023/01/08 03:47:45;;;;;;;5.00;1.40;;;;;;;;;;5087847;28;20052;-76
2023/01/08 03:50:22;;;;;;;8.18;1.63;;;;;;;;;;5087671;28;20055;-76
2023/01/08 03:52:52;;;;;;;10.93;1.38;;;;;;;;;;5087792;28;20519;-75
2023/01/08 03:55:23;;;;;;;7.93;1.48;;;;;;;;;;5087119;28;20510;-75
2023/01/08 03:57:53;;;;;;;8.02;1.40;;;;;;;;;;5086959;28;20050;-75
2023/01/08 04:00:25;;;;;;;7.75;0.90;;;;;;;;;;5086358;28;20054;-76
2023/01/08 04:02:56;;;;;;;10.35;1.50;;;;;;;;;;5087582;28;20048;-76
2023/01/08 04:05:26;;;;;;;10.20;1.73;;;;;;;;;;5087173;28;20040;-75
2023/01/08 04:07:57;;;;;;;4.97;1.35;;;;;;;;;;5085156;28;20063;-75
2023/01/08 04:10:27;;;;;;;8.63;1.10;;;;;;;;;;5086982;28;20051;-75
2023/01/08 04:12:57;;;;;;;8.50;1.23;;;;;;;;;;5087013;28;20162;-75
2023/01/08 04:15:29;;;;;;;4.95;1.17;;;;;;;;;;5086632;28;20051;-75
2023/01/08 04:18:00;;;;;;;12.65;2.67;;;;;;;;;;5086977;28;20047;-75
2023/01/08 04:20:30;;;;;;;10.40;1.50;;;;;;;;;;5085018;28;20051;-76
2023/01/08 04:23:00;;;;;;;11.20;1.30;;;;;;;;;;5085050;28;20064;-75
2023/01/08 04:25:30;;;;;;;9.60;1.40;;;;;;;;;;5086930;28;20055;-76
2023/01/08 04:28:00;;;;;;;10.55;1.42;;;;;;;;;;5087076;28;20137;-76
2023/01/08 04:30:31;;;;;;;6.40;1.13;;;;;;;;;;5086528;28;20051;-76
2023/01/08 04:33:02;;;;;;;8.43;1.13;;;;;;;;;;5085076;28;20052;-76
2023/01/08 04:35:31;;;;;;;8.70;1.50;;;;;;;;;;5086529;28;20052;-76
2023/01/08 04:38:02;;;;;;;11.98;1.67;;;;;;;;;;5086277;28;20536;-76
2023/01/08 04:40:35;;;;;;;12.98;1.40;;;;;;;;;;5085381;28;20048;-76
2023/01/08 04:43:06;;;;;;;8.20;1.35;;;;;;;;;;5086640;28;20040;-76
2023/01/08 04:45:36;;;;;;;7.60;1.27;;;;;;;;;;5085436;28;20044;-76
2023/01/08 04:48:07;;;;;;;10.45;1.33;;;;;;;;;;5086377;28;20062;-76
2023/01/08 04:50:37;;;;;;;6.20;1.10;;;;;;;;;;5086066;28;20049;-76
2023/01/08 04:53:08;;;;;;;9.32;1.27;;;;;;;;;;5084887;28;20048;-75
2023/01/08 04:55:38;;;;;;;8.75;1.40;;;;;;;;;;5086442;28;20047;-76
2023/01/08 04:58:09;;;;;;;5.43;1.30;;;;;;;;;;5086145;28;20048;-76
2023/01/08 05:00:40;;;;;;;12.65;2.17;;;;;;;;;;5087197;28;20051;-75
2023/01/08 05:03:10;;;;;;;7.60;1.45;;;;;;;;;;5087226;28;20483;-76
2023/01/08 05:05:40;;;;;;;11.52;1.48;;;;;;;;;;5086305;28;20044;-76
2023/01/08 05:08:11;;;;;;;5.97;1.23;;;;;;;;;;5086000;28;20048;-76
2023/01/08 05:10:42;;;;;;;9.63;1.20;;;;;;;;;;5086466;28;20048;-76
2023/01/08 05:13:12;;;;;;;7.22;1.10;;;;;;;;;;5084624;28;20540;-76
2023/01/08 05:15:42;;;;;;;11.10;1.30;;;;;;;;;;5086610;28;20062;-76
2023/01/08 05:18:14;;;;;;;7.82;1.40;;;;;;;;;;5086885;28;20384;-76
2023/01/08 05:20:45;;;;;;;8.88;1.63;;;;;;;;;;5086727;28;20048;-76
2023/01/08 05:23:15;;;;;;;12.27;1.30;;;;;;;;;;5085674;28;20060;-76
2023/01/08 05:25:45;;;;;;;10.38;1.27;;;;;;;;;;5086334;28;20048;-76
2023/01/08 05:28:15;;;;;;;5.90;1.17;;;;;;;;;;5086082;28;20489;-75
2023/01/08 05:30:47;;;;;;;11.48;1.10;;;;;;;;;;5085533;28;20404;-75
2023/01/08 05:33:18;;;;;;;8.73;1.33;;;;;;;;;;5085946;28;20059;-76
2023/01/08 05:35:49;;;;;;;6.70;1.30;;;;;;;;;;5085628;28;20051;-76
2023/01/08 05:38:19;;;;;;;13.75;1.30;;;;;;;;;;5085718;28;20056;-76
2023/01/08 05:40:52;;;;;;;5.45;1.10;;;;;;;;;;5085991;28;20048;-75
2023/01/08 05:43:23;;;;;;;13.35;1.80;;;;;;;;;;5085736;28;20384;-76
2023/01/08 05:45:54;;;;;;;6.50;1.20;;;;;;;;;;5086058;28;20052;-76
2023/01/08 05:48:24;;;;;;;14.90;1.60;;;;;;;;;;5090304;28;20036;-75
2023/01/08 05:50:55;;;;;;;9.88;1.73;;;;;;;;;;5089436;28;20054;-76
2023/01/08 05:53:26;;;;;;;6.55;1.15;;;;;;;;;;5089408;28;20044;-76
2023/01/08 05:56:05;;;;;;;8.10;1.55;;;;;;;;;;5089448;28;20513;-76
2023/01/08 05:58:38;;;;;;;10.63;1.30;;;;;;;;;;5088955;28;20047;-76
2023/01/08 06:01:12;;;;;;;11.63;1.20;;;;;;;;;;5089070;28;20043;-75
2023/01/08 06:03:43;;;;;;;11.63;1.38;;;;;;;;;;5089465;28;20043;-76
2023/01/08 06:06:15;;;;;;;11.38;1.50;;;;;;;;;;5089079;28;20051;-76
2023/01/08 06:08:45;;;;;;;12.10;1.65;;;;;;;;;;5089172;28;20051;-76
2023/01/08 06:11:15;;;;;;;8.93;1.30;;;;;;;;;;5088444;28;20044;-75
2023/01/08 06:13:46;;;;;;;5.78;1.15;;;;;;;;;;5087697;28;20429;-76
2023/01/08 06:16:16;;;;;;;7.15;0.98;;;;;;;;;;5090069;28;20048;-76
2023/01/08 06:18:46;;;;;;;9.10;1.40;;;;;;;;;;5089196;28;20055;-76
2023/01/08 06:21:17;;;;;;;6.80;1.17;;;;;;;;;;5087150;28;20071;-75
2023/01/08 06:23:47;;;;;;;8.63;2.08;;;;;;;;;;5088694;28;20052;-76
2023/01/08 06:26:17;;;;;;;7.03;1.27;;;;;;;;;;5089008;28;20556;-75
2023/01/08 06:28:47;;;;;;;9.63;1.27;;;;;;;;;;5089215;28;20059;-76
2023/01/08 06:31:17;;;;;;;6.50;1.20;;;;;;;;;;5089075;28;20051;-75
2023/01/08 06:33:47;;;;;;;7.75;1.40;;;;;;;;;;5088954;28;20044;-77
2023/01/08 06:36:18;;;;;;;10.25;1.80;;;;;;;;;;5088538;28;20048;-76
2023/01/08 06:38:48;;;;;;;4.50;1.05;;;;;;;;;;5088767;28;20059;-75
2023/01/08 06:41:19;;;;;;;8.55;1.30;;;;;;;;;;5088924;28;20459;-75
2023/01/08 06:43:49;;;;;;;6.82;1.25;;;;;;;;;;5089265;28;20048;-76
2023/01/08 06:46:20;;;;;;;8.07;1.15;;;;;;;;;;5088596;28;20058;-75
2023/01/08 06:48:50;;;;;;;7.65;1.27;;;;;;;;;;5087798;28;20047;-76
2023/01/08 06:51:21;;;;;;;9.90;2.08;;;;;;;;;;5088182;28;20051;-76
2023/01/08 06:53:51;;;;;;;8.50;1.15;;;;;;;;;;5088224;28;20055;-75
2023/01/08 06:56:22;;;;;;;9.90;1.40;;;;;;;;;;5088484;28;20048;-76
2023/01/08 06:58:52;;;;;;;7.93;1.27;;;;;;;;;;5086596;28;20373;-75
2023/01/08 07:01:24;;;;;;;7.35;1.05;;;;;;;;;;5088037;28;20059;-76
2023/01/08 07:03:55;;;;;;;11.60;1.73;;;;;;;;;;5085989;28;20048;-75
2023/01/08 07:06:26;;;;;;;8.13;1.73;;;;;;;;;;5088385;28;20044;-75
2023/01/08 07:08:57;;;;;;;7.05;1.10;;;;;;;;;;5086668;28;20052;-75
2023/01/08 07:11:27;;;;;;;8.77;1.48;;;;;;;;;;5086696;28;20052;-76
2023/01/08 07:13:58;;;;;;;9.43;1.35;;;;;;;;;;5087990;28;20044;-75
2023/01/08 07:16:28;;;;;;;12.27;1.33;;;;;;;;;;5087716;28;20044;-75
2023/01/08 07:18:58;;;;;;;10.15;1.52;;;;;;;;;;5086443;28;20055;-75
2023/01/08 07:21:28;;;;;;;11.43;1.25;;;;;;;;;;5088265;28;20044;-75
2023/01/08 07:23:59;;;;;;;8.05;1.42;;;;;;;;;;5086249;28;20075;-75
2023/01/08 07:26:30;;;;;;;9.45;1.30;;;;;;;;;;5087805;28;20040;-76
2023/01/08 07:29:01;;;;;;;9.07;1.50;;;;;;;;;;5087564;28;20411;-76
2023/01/08 07:31:30;;;;;;;7.57;1.27;;;;;;;;;;5087404;28;20043;-76
2023/01/08 07:34:01;;;;;;;9.68;1.50;;;;;;;;;;5087502;28;20044;-75
2023/01/08 07:36:31;;;;;;;9.65;1.33;;;;;;;;;;5087338;28;20040;-75
2023/01/08 07:39:02;;;;;;;6.68;1.25;;;;;;;;;;5086229;28;20071;-75
2023/01/08 07:41:32;;;;;;;8.63;1.00;;;;;;;;;;5087307;28;20051;-75
2023/01/08 07:44:02;;;;;;;8.52;1.25;;;;;;;;;;5087496;28;20044;-75
2023/01/08 07:46:33;;;;;;;4.75;1.33;;;;;;;;;;5086190;28;20050;-75
2023/01/08 07:49:04;;;;;;;6.25;1.08;;;;;;;;;;5086842;28;20422;-76
2023/01/08 07:51:35;;;;;;;13.95;1.95;;;;;;;;;;5085503;28;20059;-76
2023/01/08 07:54:05;;;;;;;7.90;1.50;;;;;;;;;;5087035;28;20044;-75
2023/01/08 07:56:35;;;;;;;8.52;1.50;;;;;;;;;;5087526;28;20044;-76
2023/01/08 07:59:05;;;;;;;11.70;1.25;;;;;;;;;;5087442;28;20048;-76
2023/01/08 08:01:35;;;;;;;10.50;1.40;;;;;;;;;;5086050;28;20065;-76
2023/01/08 08:04:06;;;;;;;8.07;1.30;;;;;;;;;;5087684;28;20051;-75
2023/01/08 08:06:36;;;;;;;8.10;1.30;;;;;;;;;;5087400;28;20055;-76
2023/01/08 08:09:06;;;;;;;7.03;1.30;;;;;;;;;;5086417;28;20044;-76
2023/01/08 08:11:37;;;;;;;7.57;1.50;;;;;;;;;;5086693;28;20048;-76
2023/01/08 08:26:58;;;;;;;9.10;1.58;;;;;;;;;;5125023;27;20550;-76
2023/01/08 08:29:28;;;;;;;7.10;1.27;;;;;;;;;;5103188;28;20450;-75
2023/01/08 08:31:58;;;;;;;8.48;1.40;;;;;;;;;;5103771;28;20058;-76
2023/01/08 08:34:29;;;;;;;7.47;1.10;;;;;;;;;;5103630;28;20056;-74
2023/01/08 08:36:59;;;;;;;7.13;1.40;;;;;;;;;;5104379;28;20051;-74
2023/01/08 08:39:31;;;;;;;8.93;1.50;;;;;;;;;;5103899;28;20048;-75
2023/01/08 08:42:01;;;;;;;9.25;1.48;;;;;;;;;;5084959;28;20067;-74
2023/01/08 08:44:31;;;;;;;6.97;1.80;;;;;;;;;;5084501;28;20052;-75
2023/01/08 08:47:05;;;;;;;11.52;2.60;;;;;;;;;;5103701;28;20078;-74
2023/01/08 08:49:36;;;;;;;5.70;1.30;;;;;;;;;;5103901;28;20040;-74
2023/01/08 08:52:06;;;;;;;7.15;1.17;;;;;;;;;;5103984;28;20636;-74
2023/01/08 08:54:40;;;;;;;8.75;1.17;;;;;;;;;;5103354;28;20039;-74
2023/01/08 08:57:10;;;;;;;9.23;1.20;;;;;;;;;;5103838;28;20508;-75
2023/01/08 08:59:42;;;;;;;9.52;1.48;;;;;;;;;;5103538;28;20516;-74
2023/01/08 09:02:12;;;;;;;7.97;1.23;;;;;;;;;;5103606;28;20039;-74
2023/01/08 09:04:43;;;;;;;13.85;1.30;;;;;;;;;;5103240;28;20051;-74
2023/01/08 09:07:13;;;;;;;7.60;1.63;;;;;;;;;;5103390;28;20032;-75
2023/01/08 09:09:43;;;;;;;7.20;1.33;;;;;;;;;;5103040;28;20043;-74
2023/01/08 09:12:14;;;;;;;6.05;1.40;;;;;;;;;;5085459;28;20048;-74
2023/01/08 09:14:45;;;;;;;8.55;1.20;;;;;;;;;;5099615;28;20048;-75
2023/01/08 09:17:15;;;;;;;10.70;1.42;;;;;;;;;;5082757;28;20047;-76
2023/01/08 09:19:45;;;;;;;10.90;1.35;;;;;;;;;;5083022;28;20044;-75
2023/01/08 09:22:15;;;;;;;7.68;1.42;;;;;;;;;;5082623;28;20055;-75
2023/01/08 09:24:45;;;;;;;10.57;1.52;;;;;;;;;;5082996;28;20047;-74
2023/01/08 09:27:15;;;;;;;10.15;1.27;;;;;;;;;;5073101;28;20036;-74
2023/01/08 09:29:46;;;;;;;9.55;2.03;;;;;;;;;;5069398;28;20418;-74
2023/01/08 09:32:16;;;;;;;7.75;1.60;;;;;;;;;;5069250;28;20427;-74
2023/01/08 09:34:46;;;;;;;13.48;1.55;;;;;;;;;;5051625;28;20044;-74
2023/01/08 09:37:18;;;;;;;14.05;1.35;;;;;;;;;;5069750;28;20059;-75
2023/01/08 09:39:49;;;;;;;8.43;1.27;;;;;;;;;;5051599;28;20047;-74
2023/01/08 09:42:31;;;;;;;9.45;1.50;;;;;;;;;;5068815;28;20059;-76
2023/01/08 09:45:03;;;;;;;10.20;1.40;;;;;;;;;;5068823;28;20053;-76
2023/01/08 09:47:39;;;;;;;8.55;1.42;;;;;;;;;;5068701;28;20059;-75
2023/01/08 09:50:13;;;;;;;5.90;1.23;;;;;;;;;;5069098;28;20052;-76
2023/01/08 09:52:43;;;;;;;8.73;1.45;;;;;;;;;;5069182;28;20044;-75
2023/01/08 09:55:14;;;;;;;5.35;1.48;;;;;;;;;;5068546;28;20049;-75
2023/01/08 09:57:47;;;;;;;13.70;1.70;;;;;;;;;;5068784;28;20414;-76
2023/01/08 10:00:23;;;;;;;7.45;1.58;;;;;;;;;;5051188;28;20499;-76
2023/01/08 10:02:54;;;;;;;11.30;2.00;;;;;;;;;;5049864;28;20399;-75
2023/01/08 10:05:27;;;;;;;8.15;2.22;;;;;;;;;;5068542;28;20060;-76
2023/01/08 10:07:58;;;;;;;13.13;3.53;;;;;;;;;;5068591;28;20052;-76
2023/01/08 10:10:30;;;;;;;15.65;6.63;;;;;;;;;;5068492;28;20422;-75
2023/01/08 10:13:01;;;;;;;14.32;2.47;;;;;;;;;;5067172;28;20542;-75
2023/01/08 10:15:31;;;;;;;7.35;1.50;;;;;;;;;;5067641;28;20049;-76
2023/01/08 10:18:05;;;;;;;7.80;1.20;;;;;;;;;;5068109;28;20471;-75
2023/01/08 10:20:36;;;;;;;9.38;1.77;;;;;;;;;;5068567;28;20040;-75
2023/01/08 10:23:16;;;;;;;9.10;1.63;;;;;;;;;;5049689;28;20059;-76
2023/01/08 10:25:50;;;;;;;9.48;1.23;;;;;;;;;;5068503;28;20506;-75
2023/01/08 10:28:27;;;;;;;6.13;1.17;;;;;;;;;;5068449;28;20048;-78
2023/01/08 10:31:18;;;;;;;8.90;1.40;;;;;;;;;;5067966;28;20056;-75
2023/01/08 10:33:49;;;;;;;6.45;1.40;;;;;;;;;;5068025;28;20039;-76
2023/01/08 10:36:26;;;;;;;9.48;1.63;;;;;;;;;;5067910;28;20052;-75
2023/01/08 10:39:01;;;;;;;13.63;2.22;;;;;;;;;;5048583;28;20052;-77
2023/01/08 10:41:38;;;;;;;6.68;1.15;;;;;;;;;;5067452;28;20426;-76
2023/01/08 10:44:16;;;;;;;8.65;1.60;;;;;;;;;;5067928;28;20044;-78
2023/01/08 10:46:51;;;;;;;12.32;1.25;;;;;;;;;;5068020;28;20044;-76
2023/01/08 10:49:38;;;;;;;6.05;1.13;;;;;;;;;;5067844;28;20531;-75
2023/01/08 10:52:26;;;;;;;11.77;1.40;;;;;;;;;;5068168;28;20052;-75
2023/01/08 10:54:56;;;;;;;6.65;1.00;;;;;;;;;;5067435;28;20487;-76
2023/01/08 10:57:29;;;;;;;14.18;1.52;;;;;;;;;;5067113;28;20048;-75
2023/01/08 11:00:00;;;;;;;7.63;1.15;;;;;;;;;;5067343;28;20403;-76
2023/01/08 11:02:34;;;;;;;7.13;1.02;;;;;;;;;;5067104;28;20051;-76
2023/01/08 11:05:10;;;;;;;11.30;2.95;;;;;;;;;;5067617;28;20411;-76
2023/01/08 11:07:42;;;;;;;9.43;1.70;;;;;;;;;;5067368;28;20505;-76
2023/01/08 11:10:26;;;;;;;9.90;1.40;;;;;;;;;;5067251;28;20045;-76
2023/01/08 11:12:59;;;;;;;9.60;1.45;;;;;;;;;;5049644;28;20616;-76
2023/01/08 11:15:43;;;;;;;6.50;1.13;;;;;;;;;;5067520;28;20059;-76
2023/01/08 11:18:19;;;;;;;8.65;1.33;;;;;;;;;;5050096;28;20041;-77
2023/01/08 11:20:51;;;;;;;9.55;1.48;;;;;;;;;;5066891;28;20055;-76
2023/01/08 11:23:25;;;;;;;7.00;1.30;;;;;;;;;;5067035;28;20072;-76
2023/01/08 11:26:02;;;;;;;7.60;1.45;;;;;;;;;;5066919;28;20052;-77
2023/01/08 11:29:00;;;;;;;6.05;1.02;;;;;;;;;;5066756;28;20051;-74
2023/01/08 11:31:43;;;;;;;9.20;1.38;;;;;;;;;;5066324;28;20067;-75
2023/01/08 11:34:30;;;;;;;6.15;1.25;;;;;;;;;;5066670;28;20053;-76
2023/01/08 11:37:21;;;;;;;6.80;1.35;;;;;;;;;;5066625;28;20442;-77
2023/01/08 11:39:53;;;;;;;5.97;1.10;;;;;;;;;;5067209;28;20040;-76
2023/01/08 11:42:47;;;;;;;7.13;1.00;;;;;;;;;;5067525;28;20036;-75
2023/01/08 11:45:31;;;;;;;4.32;0.77;;;;;;;;;;5066717;28;20049;-76
2023/01/08 11:48:16;;;;;;;8.45;1.20;;;;;;;;;;5048072;28;20049;-78
2023/01/08 11:51:24;;;;;;;8.18;1.25;;;;;;;;;;5066500;28;20045;-77
2023/01/08 11:53:59;;;;;;;6.78;1.40;;;;;;;;;;5066417;28;20049;-75
2023/01/08 11:56:38;;;;;;;5.15;1.30;;;;;;;;;;5066375;28;20526;-76
2023/01/08 11:59:18;;;;;;;4.45;1.05;;;;;;;;;;5066707;28;20055;-76
2023/01/08 12:01:49;;;;;;;6.45;1.00;;;;;;;;;;5067061;28;20040;-78
2023/01/08 12:04:33;;;;;;;5.68;1.17;;;;;;;;;;5066297;28;20410;-78
2023/01/08 12:07:35;;;;;;;3.95;1.10;;;;;;;;;;5048523;28;20517;-77
2023/01/08 12:10:14;;;;;;;5.53;1.63;;;;;;;;;;5067048;28;20406;-77
2023/01/08 12:13:03;;;;;;;3.75;0.90;;;;;;;;;;5067431;28;20048;-76
2023/01/08 12:16:05;;;;;;;7.25;1.25;;;;;;;;;;5066183;28;20072;-77
2023/01/08 12:18:46;;;;;;;5.20;1.45;;;;;;;;;;5066226;28;20060;-77
2023/01/08 12:21:45;;;;;;;5.47;1.02;;;;;;;;;;5066818;28;20063;-76
2023/01/08 12:24:46;;;;;;;9.45;1.23;;;;;;;;;;5050013;28;20064;-76
2023/01/08 12:27:38;;;;;;;3.83;0.90;;;;;;;;;;4979966;28;20061;-76
2023/01/08 12:30:24;;;;;;;5.03;1.00;;;;;;;;;;5051462;28;20102;-76
2023/01/08 12:33:03;;;;;;;3.38;0.85;;;;;;;;;;5066191;28;20052;-76
2023/01/08 12:35:40;;;;;;;6.65;0.93;;;;;;;;;;5066539;28;20049;-78
2023/01/08 12:38:18;;;;;;;5.32;0.90;;;;;;;;;;5048185;28;20533;-75
2023/01/08 12:40:58;;;;;;;4.15;1.00;;;;;;;;;;5066381;28;20555;-81
2023/01/08 12:43:50;;;;;;;4.78;0.68;;;;;;;;;;5066525;28;20060;-76
2023/01/08 12:46:24;;;;;;;4.88;0.93;;;;;;;;;;5053824;28;20068;-75
2023/01/08 12:48:55;;;;;;;6.50;1.23;;;;;;;;;;5065979;28;20053;-76
2023/01/08 12:51:33;;;;;;;3.67;1.30;;;;;;;;;;5066405;28;20409;-76
2023/01/08 12:54:20;;;;;;;5.00;1.10;;;;;;;;;;5066677;28;20055;-76
2023/01/08 12:57:30;;;;;;;6.57;1.20;;;;;;;;;;5064421;28;20044;-75
2023/01/08 13:00:07;;;;;;;7.32;1.20;;;;;;;;;;5065430;28;20060;-76
2023/01/08 13:02:43;;;;;;;6.22;1.42;;;;;;;;;;5050909;28;20048;-75
2023/01/08 13:05:36;;;;;;;4.10;1.33;;;;;;;;;;5069266;28;20499;-75
2023/01/08 13:08:29;;;;;;;5.78;1.00;;;;;;;;;;5073150;28;20041;-75
2023/01/08 13:11:00;;;;;;;2.70;0.90;;;;;;;;;;5072080;28;20051;-75
2023/01/08 13:13:40;;;;;;;6.93;1.00;;;;;;;;;;5051872;28;20079;-76
2023/01/08 13:16:15;;;;;;;5.22;1.35;;;;;;;;;;5069420;28;20582;-77
2023/01/08 13:19:01;;;;;;;5.25;0.70;;;;;;;;;;5069192;28;20536;-76
2023/01/08 13:21:49;;;;;;;3.45;0.80;;;;;;;;;;5069203;28;20528;-74
2023/01/08 13:24:38;;;;;;;6.00;0.73;;;;;;;;;;5069418;28;20052;-76
2023/01/08 13:27:17;;;;;;;6.55;1.00;;;;;;;;;;5069001;28;20533;-76
2023/01/08 13:29:52;;;;;;;3.35;0.90;;;;;;;;;;5068923;28;20045;-75
2023/01/08 13:32:45;;;;;;;6.53;1.85;;;;;;;;;;5068476;28;20058;-75
2023/01/08 13:35:16;;;;;;;6.70;0.95;;;;;;;;;;5069303;28;20049;-75
2023/01/08 13:37:52;;;;;;;4.43;1.10;;;;;;;;;;5068751;28;20049;-75
2023/01/08 13:40:44;;;;;;;5.03;1.02;;;;;;;;;;5069194;28;20041;-75
2023/01/08 13:43:20;;;;;;;8.00;1.27;;;;;;;;;;5069761;28;20049;-74
2023/01/08 13:46:06;;;;;;;4.53;0.90;;;;;;;;;;5068687;28;20057;-76
2023/01/08 13:48:54;;;;;;;4.90;1.02;;;;;;;;;;5068476;28;20044;-77
2023/01/08 13:51:44;;;;;;;;;;;;;;;;;;5069369;28;20672;-76
2023/01/08 13:54:31;;;;;;;6.93;1.13;;;;;;;;;;5069089;28;19931;-75
2023/01/08 13:57:06;;;;;;;3.72;0.70;;;;;;;;;;5068544;28;20057;-75
2023/01/08 13:59:41;;;;;;;5.40;1.42;;;;;;;;;;5067023;28;20050;-75
2023/01/08 14:02:50;;;;;;;9.30;1.02;;;;;;;;;;5066441;28;20071;-76
2023/01/08 14:05:29;;;;;;;8.27;1.35;;;;;;;;;;5002421;28;20080;-75
2023/01/08 14:08:02;;;;;;;5.00;1.00;;;;;;;;;;5061807;28;20071;-75
2023/01/08 14:10:35;;;;;;;6.15;1.00;;;;;;;;;;5066407;28;20049;-75
2023/01/08 14:13:08;;;;;;;7.47;1.17;;;;;;;;;;5066798;28;20430;-75
2023/01/08 14:15:39;;;;;;;9.63;1.23;;;;;;;;;;5067649;28;20048;-75
2023/01/08 14:18:12;;;;;;;5.68;0.85;;;;;;;;;;5067663;28;20048;-75
2023/01/08 14:20:47;;;;;;;4.40;0.80;;;;;;;;;;5068616;28;20059;-76
2023/01/08 14:23:39;;;;;;;4.22;0.75;;;;;;;;;;5066199;28;20633;-78
2023/01/08 14:26:25;;;;;;;5.00;0.82;;;;;;;;;;5067859;28;20049;-76
2023/01/08 14:28:55;;;;;;;10.02;1.17;;;;;;;;;;5068298;28;20052;-76
2023/01/08 14:31:27;;;;;;;4.30;0.70;;;;;;;;;;5066612;28;20068;-76
2023/01/08 14:34:06;;;;;;;7.25;1.40;;;;;;;;;;5067687;28;20048;-76
2023/01/08 14:36:49;;;;;;;9.38;2.55;;;;;;;;;;5047946;28;20454;-76
2023/01/08 14:39:34;;;;;;;4.78;0.80;;;;;;;;;;5051069;28;20056;-76
2023/01/08 14:42:43;;;;;;;5.15;0.98;;;;;;;;;;5047830;28;20581;-76
2023/01/08 14:45:45;;;;;;;4.22;1.67;;;;;;;;;;5047289;28;20048;-76
2023/01/08 14:48:27;;;;;;;3.83;0.90;;;;;;;;;;5025858;28;20498;-77
2023/01/08 14:51:10;;;;;;;1.35;0.55;;;;;;;;;;5047740;28;20047;-76
2023/01/08 14:53:54;;;;;;;5.78;0.77;;;;;;;;;;5028903;28;20056;-75
2023/01/08 14:56:36;;;;;;;3.97;0.90;;;;;;;;;;5047415;28;20041;-76
2023/01/08 14:59:11;;;;;;;1.98;0.68;;;;;;;;;;5046440;28;20063;-77
2023/01/08 15:01:42;;;;;;;6.65;1.27;;;;;;;;;;5047073;28;20523;-74
2023/01/08 15:04:44;;;;;;;6.90;1.60;;;;;;;;;;5046664;28;20041;-77
2023/01/08 15:07:29;;;;;;;6.10;0.90;;;;;;;;;;5047557;28;20053;-76
2023/01/08 15:10:01;;;;;;;6.95;1.40;;;;;;;;;;5047609;28;20407;-76
2023/01/08 15:12:31;;;;;;;4.30;1.00;;;;;;;;;;5047918;28;20052;-77
2023/01/08 15:15:21;;;;;;;6.07;0.90;;;;;;;;;;5044578;28;20052;-77
2023/01/08 15:17:53;;;;;;;3.28;0.80;;;;;;;;;;5047799;28;20071;-78
2023/01/08 15:20:30;;;;;;;2.67;0.50;;;;;;;;;;5047231;28;20045;-76
2023/01/08 15:23:25;;;;;;;1.95;0.90;;;;;;;;;;5045361;28;20044;-76
2023/01/08 15:26:12;;;;;;;2.35;0.90;;;;;;;;;;4943705;28;20055;-78
2023/01/08 15:29:21;;;;;;;3.25;0.70;;;;;;;;;;5017610;28;20559;-75
2023/01/08 15:31:51;;;;;;;3.42;0.82;;;;;;;;;;5025840;28;20053;-79
2023/01/08 15:34:21;;;;;;;6.03;0.90;;;;;;;;;;5026442;28;20057;-75
2023/01/08 15:36:51;;;;;;;3.17;0.70;;;;;;;;;;5026891;28;20053;-77
2023/01/08 15:39:21;;;;;;;6.00;1.13;;;;;;;;;;5027110;28;20053;-76
2023/01/08 15:44:41;;;;;;;2.85;0.90;;;;;;;;;;5048470;28;20044;-76
2023/01/08 15:47:15;;;;;;;;;;;;;;;;;;5049190;28;20052;-77
2023/01/08 15:49:46;;;;;;;5.82;0.80;;;;;;;;;;5046382;28;19924;-77